Cherry Hills Village, Colorado
Current Conditions -  °F | °C
As of 10:53 AM on Saturday 25 Oct 2014 (Local Time) from KAPA Reporting Station
Clear Clear  
Wind Chill: 68°   Ceiling: Unl
Heat Index: 68°   Visibility: 10mi
Dew Point: 28°   Wind: 0mph
Humidity: 22%   Direction: NA
Pressure: 30.27"   Gusts: NA
Location:  39.6158°N, 104.874°W
Report Text: KAPA 251653Z 00000KT 10SM CLR 20/M02 A3027 RMK AO2 SLP204 T02001022
Loading
Personal Weather Stations






























Interactive Weather Map
Tropical Storm Tracking
New forecast layout! Learn more

10-Day Weather Forecast

Advertisements
Track Severe Weather on mobile